Time;durP1;ratioP1;P1;durP2;ratioP2;P2;SDS_P1;SDS_P2;PMS_P1;PMS_P2;Temp;Humidity;BMP_temperature;BMP_pressure;BME280_temperature;BME280_humidity;BME280_pressure;Samples;Min_cycle;Max_cycle;Signal;HPM_P1;HPM_P2
2022/10/11 00:01:44;;;;;;;21.55;13.00;;;11.90;79.30;;;;;;5094156;28;20016;-17
2022/10/11 00:04:10;;;;;;;20.95;11.65;;;11.80;79.10;;;;;;5093986;28;20041;-18
2022/10/11 00:06:37;;;;;;;22.95;13.55;;;11.80;79.40;;;;;;5093763;28;20055;-17
2022/10/11 00:09:04;;;;;;;23.13;14.68;;;11.80;79.30;;;;;;5093611;28;20481;-17
2022/10/11 00:11:30;;;;;;;27.45;15.23;;;11.80;79.10;;;;;;5093595;28;20110;-15
2022/10/11 00:13:57;;;;;;;16.98;10.95;;;11.80;79.70;;;;;;5093780;28;20409;-16
2022/10/11 00:16:23;;;;;;;15.15;10.23;;;11.80;79.40;;;;;;5093866;28;20139;-17
2022/10/11 00:18:49;;;;;;;13.88;9.95;;;11.80;79.10;;;;;;5093919;28;20487;-16
2022/10/11 00:21:16;;;;;;;19.08;11.48;;;11.70;79.10;;;;;;5093764;28;20036;-18
2022/10/11 00:23:42;;;;;;;17.60;11.52;;;11.70;79.40;;;;;;5093622;28;20020;-15
2022/10/11 00:26:10;;;;;;;15.98;10.38;;;11.70;79.40;;;;;;5093415;28;20497;-17
2022/10/11 00:28:36;;;;;;;21.58;13.18;;;11.70;79.40;;;;;;5093482;28;20052;-15
2022/10/11 00:31:12;;;;;;;16.00;10.60;;;11.70;79.20;;;;;;5093009;28;20032;-16
2022/10/11 00:33:38;;;;;;;14.18;8.68;;;11.60;79.20;;;;;;5094185;28;20054;-17
2022/10/11 00:36:06;;;;;;;13.30;8.80;;;11.60;79.30;;;;;;5091694;28;20557;-17
2022/10/11 00:38:33;;;;;;;13.55;8.82;;;11.60;79.00;;;;;;5093469;28;20103;-16
2022/10/11 00:41:00;;;;;;;14.82;9.23;;;11.60;79.00;;;;;;5093741;28;20028;-17
2022/10/11 00:43:31;;;;;;;17.55;9.38;;;11.60;78.90;;;;;;5093620;28;20059;-16
2022/10/11 00:45:59;;;;;;;18.58;11.02;;;11.60;78.90;;;;;;5093158;28;20030;-15
2022/10/11 00:48:39;;;;;;;19.85;10.77;;;11.60;79.20;;;;;;5093142;28;20039;-15
2022/10/11 00:51:16;;;;;;;17.63;10.32;;;11.60;79.20;;;;;;5093165;28;20047;-15
2022/10/11 00:53:42;;;;;;;25.38;15.63;;;11.50;79.20;;;;;;5093060;28;20497;-15
2022/10/11 00:56:25;;;;;;;17.17;10.85;;;11.50;79.40;;;;;;5093373;28;20051;-15
2022/10/11 00:58:54;;;;;;;17.80;12.20;;;11.50;79.50;;;;;;5093304;28;20024;-16
2022/10/11 01:01:20;;;;;;;23.05;15.50;;;11.40;79.60;;;;;;5093413;28;20020;-16
2022/10/11 01:03:47;;;;;;;19.25;11.75;;;11.40;80.10;;;;;;5093226;28;20020;-15
2022/10/11 01:06:13;;;;;;;18.88;10.95;;;11.40;80.00;;;;;;5092960;28;20029;-16
2022/10/11 01:08:39;;;;;;;17.67;10.43;;;11.30;80.10;;;;;;5093167;28;20031;-15
2022/10/11 01:11:08;;;;;;;14.32;8.75;;;11.30;79.90;;;;;;5092625;28;20032;-16
2022/10/11 01:14:00;;;;;;;14.70;9.50;;;11.30;79.70;;;;;;5093441;28;20024;-15
2022/10/11 01:16:38;;;;;;;17.13;10.88;;;11.30;79.50;;;;;;5087003;28;20032;-15
2022/10/11 01:19:32;;;;;;;14.77;9.48;;;11.30;79.70;;;;;;5092700;28;20149;-15
2022/10/11 01:22:24;;;;;;;15.68;9.52;;;11.30;79.80;;;;;;5092780;28;20036;-15
2022/10/11 01:25:11;;;;;;;21.67;11.90;;;11.20;79.60;;;;;;5092754;28;20028;-17
2022/10/11 01:28:09;;;;;;;19.17;11.70;;;11.20;79.90;;;;;;5082359;28;20032;-16
2022/10/11 01:30:37;;;;;;;20.58;12.25;;;11.10;79.80;;;;;;5092940;28;20107;-15
2022/10/11 01:33:26;;;;;;;17.50;11.40;;;11.10;80.20;;;;;;5092555;28;20032;-16
2022/10/11 01:35:58;;;;;;;15.77;9.05;;;11.10;80.10;;;;;;5092516;28;20058;-16
2022/10/11 01:38:31;;;;;;;22.17;12.57;;;11.10;79.80;;;;;;5092518;28;20035;-16
2022/10/11 01:41:26;;;;;;;24.83;14.30;;;11.10;80.00;;;;;;5092544;28;20115;-15
2022/10/11 01:44:00;;;;;;;15.15;10.05;;;11.00;80.10;;;;;;5090896;28;20107;-16
2022/10/11 01:46:28;;;;;;;14.23;9.25;;;11.00;80.20;;;;;;5092660;28;20103;-17
2022/10/11 01:48:57;;;;;;;13.93;9.35;;;11.00;80.10;;;;;;5096058;28;20020;-15
2022/10/11 01:51:45;;;;;;;19.05;10.55;;;11.00;79.90;;;;;;5096203;28;20464;-18
2022/10/11 01:54:29;;;;;;;19.58;12.85;;;11.00;80.00;;;;;;5096229;28;20360;-18
2022/10/11 01:57:25;;;;;;;24.20;14.05;;;10.90;80.30;;;;;;5096171;28;20050;-17
2022/10/11 02:00:12;;;;;;;20.02;12.48;;;10.90;80.20;;;;;;5097161;28;20388;-18
2022/10/11 02:02:57;;;;;;;17.00;10.60;;;10.90;80.50;;;;;;5096043;28;20032;-16
2022/10/11 02:05:43;;;;;;;17.05;10.43;;;10.90;80.30;;;;;;5094685;28;20035;-17
2022/10/11 02:08:44;;;;;;;14.68;9.85;;;10.90;80.20;;;;;;5095901;28;20475;-18
2022/10/11 02:11:32;;;;;;;19.27;11.93;;;10.90;80.20;;;;;;5093597;28;20039;-15
2022/10/11 02:14:11;;;;;;;16.13;10.25;;;10.90;80.10;;;;;;5096497;28;20077;-16
2022/10/11 02:16:52;;;;;;;17.08;9.98;;;10.90;80.20;;;;;;5095803;28;20025;-16
2022/10/11 02:19:23;;;;;;;22.80;13.18;;;10.90;80.20;;;;;;5096144;28;20027;-16
2022/10/11 02:21:54;;;;;;;21.25;11.75;;;10.90;80.40;;;;;;5095924;28;20047;-15
2022/10/11 02:24:42;;;;;;;16.20;10.82;;;10.90;80.60;;;;;;5094377;28;20483;-17
2022/10/11 02:27:10;;;;;;;17.00;11.40;;;10.90;80.60;;;;;;5094255;28;20016;-17
2022/10/11 02:29:41;;;;;;;16.58;10.60;;;10.80;80.90;;;;;;5095388;28;20039;-18
2022/10/11 02:32:09;;;;;;;15.85;9.85;;;10.80;80.80;;;;;;5095830;28;20119;-17
2022/10/11 02:34:43;;;;;;;14.52;9.63;;;10.80;80.60;;;;;;5095718;28;20027;-15
2022/10/11 02:37:17;;;;;;;20.63;13.23;;;10.80;80.60;;;;;;5095066;28;20073;-17
2022/10/11 02:39:57;;;;;;;19.40;13.00;;;10.80;80.50;;;;;;5095554;28;20078;-17
2022/10/11 02:42:32;;;;;;;16.45;11.38;;;10.70;80.80;;;;;;5095433;28;20051;-16
2022/10/11 02:45:42;;;;;;;16.73;9.57;;;10.70;80.80;;;;;;5095057;28;20020;-17
2022/10/11 02:48:10;;;;;;;15.60;9.85;;;10.60;80.70;;;;;;5053049;28;20075;-15
2022/10/11 02:50:39;;;;;;;14.07;9.45;;;10.60;80.60;;;;;;5052743;28;20516;-15
2022/10/11 02:53:06;;;;;;;21.67;13.20;;;10.60;80.40;;;;;;5052868;28;20063;-16
2022/10/11 02:55:32;;;;;;;15.70;10.57;;;10.60;80.50;;;;;;5053165;28;20044;-16
2022/10/11 02:57:58;;;;;;;17.73;10.57;;;10.60;80.50;;;;;;5052333;28;20493;-16
2022/10/11 03:00:23;;;;;;;18.73;10.73;;;10.50;80.70;;;;;;5051816;28;20500;-15
2022/10/11 03:02:49;;;;;;;15.98;10.18;;;10.50;80.80;;;;;;5052445;28;20127;-15
2022/10/11 03:05:15;;;;;;;18.10;11.02;;;10.50;80.70;;;;;;5052746;28;20041;-16
2022/10/11 03:07:41;;;;;;;14.48;9.85;;;10.50;80.70;;;;;;5052320;28;20025;-14
2022/10/11 03:10:07;;;;;;;12.85;8.93;;;10.50;80.80;;;;;;5035648;28;20052;-15
2022/10/11 03:12:33;;;;;;;14.43;9.35;;;10.50;80.60;;;;;;5052515;28;20530;-16
2022/10/11 03:14:59;;;;;;;15.52;10.07;;;10.50;80.80;;;;;;5052180;28;20466;-16
2022/10/11 03:17:26;;;;;;;11.98;8.48;;;10.50;80.90;;;;;;5052269;28;20053;-15
2022/10/11 03:19:53;;;;;;;13.90;9.23;;;10.50;80.60;;;;;;5092634;28;20097;-15
2022/10/11 03:22:18;;;;;;;13.70;9.43;;;10.50;80.40;;;;;;5094607;28;20429;-14
2022/10/11 03:24:44;;;;;;;14.65;9.55;;;10.50;80.30;;;;;;5094400;28;20119;-16
2022/10/11 03:27:10;;;;;;;12.77;9.15;;;10.50;80.40;;;;;;5094486;28;20069;-16
2022/10/11 03:29:36;;;;;;;19.38;11.80;;;10.50;80.40;;;;;;5094272;28;20518;-17
2022/10/11 03:32:02;;;;;;;21.40;12.43;;;10.50;80.40;;;;;;5094267;28;20023;-15
2022/10/11 03:34:28;;;;;;;16.23;10.80;;;10.40;80.30;;;;;;5094746;28;20031;-14
2022/10/11 03:36:54;;;;;;;22.45;14.35;;;10.40;80.80;;;;;;5093723;28;20052;-15
2022/10/11 03:39:19;;;;;;;17.55;10.85;;;10.40;80.80;;;;;;5092766;28;20020;-17
2022/10/11 03:41:45;;;;;;;18.15;12.23;;;10.40;80.70;;;;;;5094497;28;20099;-14
2022/10/11 03:44:11;;;;;;;17.08;10.77;;;10.30;80.80;;;;;;5094521;28;20032;-16
2022/10/11 03:46:37;;;;;;;16.50;10.48;;;10.30;80.80;;;;;;5094009;28;20059;-16
2022/10/11 03:49:03;;;;;;;22.55;11.50;;;10.30;80.60;;;;;;5093773;28;20024;-16
2022/10/11 03:51:30;;;;;;;19.30;11.10;;;10.30;80.70;;;;;;5092701;28;20097;-16
2022/10/11 03:53:57;;;;;;;18.48;11.60;;;10.30;80.70;;;;;;5094667;28;20094;-15
2022/10/11 03:56:23;;;;;;;18.05;12.43;;;10.30;80.90;;;;;;5093877;28;20070;-17
2022/10/11 03:58:48;;;;;;;16.95;11.90;;;10.30;81.00;;;;;;5093534;28;20063;-17
2022/10/11 04:01:14;;;;;;;17.15;11.18;;;10.20;81.00;;;;;;5094077;28;20043;-16
2022/10/11 04:03:40;;;;;;;14.60;9.65;;;10.20;81.10;;;;;;5093719;28;20098;-16
2022/10/11 04:06:06;;;;;;;16.90;10.98;;;10.20;81.10;;;;;;5093711;28;20029;-16
2022/10/11 04:08:32;;;;;;;15.70;9.57;;;10.20;81.00;;;;;;5093842;28;20028;-16
2022/10/11 04:10:58;;;;;;;17.65;10.55;;;10.20;81.10;;;;;;5092987;28;20059;-16
2022/10/11 04:13:24;;;;;;;14.05;8.57;;;10.20;81.00;;;;;;5094253;28;20028;-16
2022/10/11 04:15:50;;;;;;;16.92;11.27;;;10.20;80.70;;;;;;5093510;28;20028;-15
2022/10/11 04:18:15;;;;;;;16.90;10.13;;;10.20;80.90;;;;;;5093770;28;20024;-17
2022/10/11 04:20:41;;;;;;;21.23;14.40;;;10.20;81.30;;;;;;5093469;28;20020;-15
2022/10/11 04:23:08;;;;;;;15.98;10.85;;;10.10;81.10;;;;;;5093223;28;20027;-16
2022/10/11 04:25:34;;;;;;;22.20;12.73;;;10.10;81.10;;;;;;5093382;28;20487;-14
2022/10/11 04:27:59;;;;;;;13.00;8.60;;;10.10;81.50;;;;;;5093629;28;20032;-16
2022/10/11 04:30:25;;;;;;;17.83;10.35;;;10.10;81.10;;;;;;5093925;28;20081;-15
2022/10/11 04:32:51;;;;;;;15.38;9.93;;;10.10;81.20;;;;;;5093133;28;20089;-14
2022/10/11 04:35:17;;;;;;;20.95;10.77;;;10.10;81.30;;;;;;5093508;28;20044;-16
2022/10/11 04:37:43;;;;;;;19.10;10.70;;;10.10;81.10;;;;;;5093527;28;20097;-15
2022/10/11 04:40:10;;;;;;;13.75;8.85;;;10.10;81.10;;;;;;5091958;28;20426;-15
2022/10/11 04:42:35;;;;;;;14.73;9.40;;;10.00;81.00;;;;;;5091934;28;20115;-16
2022/10/11 04:45:01;;;;;;;18.80;9.13;;;10.00;81.10;;;;;;5093095;28;20452;-14
2022/10/11 04:47:27;;;;;;;14.20;9.95;;;10.00;81.10;;;;;;5093139;28;20024;-15
2022/10/11 04:49:53;;;;;;;22.20;13.20;;;10.10;81.10;;;;;;5093388;28;20035;-16
2022/10/11 04:52:19;;;;;;;22.35;14.68;;;10.10;81.00;;;;;;5093519;28;20027;-15
2022/10/11 04:54:44;;;;;;;16.17;10.20;;;10.10;81.00;;;;;;5093059;28;20085;-15
2022/10/11 04:57:10;;;;;;;18.88;11.13;;;10.10;81.20;;;;;;5092846;28;20028;-15
2022/10/11 04:59:36;;;;;;;21.08;11.30;;;10.10;81.00;;;;;;5093587;28;20020;-14
2022/10/11 05:02:02;;;;;;;16.00;10.40;;;10.10;81.10;;;;;;5092953;28;20031;-14
2022/10/11 05:04:28;;;;;;;16.88;10.43;;;10.10;81.20;;;;;;5092909;28;20024;-14
2022/10/11 05:06:54;;;;;;;17.65;11.05;;;10.10;81.30;;;;;;5092601;28;20081;-14
2022/10/11 05:09:20;;;;;;;17.52;10.23;;;10.00;81.40;;;;;;5093152;28;20036;-14
2022/10/11 05:11:46;;;;;;;17.92;11.25;;;10.00;81.40;;;;;;5094017;28;20028;-17
2022/10/11 05:14:12;;;;;;;17.15;11.38;;;10.00;81.40;;;;;;5093150;28;20016;-17
2022/10/11 05:16:39;;;;;;;15.98;9.93;;;10.00;81.50;;;;;;5093044;28;20027;-17
2022/10/11 05:19:04;;;;;;;15.30;10.60;;;10.00;81.30;;;;;;5091510;28;20017;-17
2022/10/11 05:21:30;;;;;;;25.25;14.07;;;9.90;81.40;;;;;;5093142;28;20035;-17
2022/10/11 05:23:57;;;;;;;22.20;12.27;;;9.90;81.50;;;;;;5097013;28;20357;-17
2022/10/11 05:26:26;;;;;;;17.45;10.20;;;9.90;81.40;;;;;;5095482;28;20502;-17
2022/10/11 05:28:53;;;;;;;16.38;10.13;;;9.90;81.60;;;;;;5096782;28;20038;-15
2022/10/11 05:31:19;;;;;;;17.63;11.02;;;9.90;81.40;;;;;;5096654;28;20036;-18
2022/10/11 05:33:46;;;;;;;19.30;12.18;;;9.90;81.40;;;;;;5096554;28;20017;-19
2022/10/11 05:36:13;;;;;;;33.33;16.17;;;9.90;81.70;;;;;;5096332;28;20469;-17
2022/10/11 05:38:39;;;;;;;20.55;12.75;;;9.90;81.60;;;;;;5096661;28;20024;-15
2022/10/11 05:41:05;;;;;;;18.38;12.02;;;9.90;81.70;;;;;;5096280;28;20044;-17
2022/10/11 05:43:32;;;;;;;22.67;12.85;;;9.90;81.80;;;;;;5096635;28;20035;-18
2022/10/11 05:45:58;;;;;;;22.30;13.20;;;9.90;81.80;;;;;;5096307;28;20028;-16
2022/10/11 05:48:25;;;;;;;19.90;12.57;;;9.90;81.90;;;;;;5096484;28;20499;-16
2022/10/11 05:50:52;;;;;;;22.65;14.43;;;9.90;82.00;;;;;;5095993;28;20035;-17
2022/10/11 05:53:18;;;;;;;18.38;11.02;;;9.90;82.40;;;;;;5096479;28;20024;-18
2022/10/11 05:55:44;;;;;;;20.63;11.93;;;10.00;82.20;;;;;;5096174;28;20399;-16
2022/10/11 05:58:12;;;;;;;19.85;11.75;;;10.10;82.10;;;;;;5096108;28;20031;-17
2022/10/11 06:00:39;;;;;;;32.50;17.48;;;10.20;82.00;;;;;;5096129;28;20463;-16
2022/10/11 06:03:07;;;;;;;27.90;16.38;;;10.30;82.20;;;;;;5094683;28;20479;-17
2022/10/11 06:05:34;;;;;;;31.35;21.50;;;10.40;82.50;;;;;;5096238;28;20020;-18
2022/10/11 06:08:01;;;;;;;30.15;19.63;;;10.50;82.80;;;;;;5096111;28;20016;-16
2022/10/11 06:10:27;;;;;;;33.80;22.42;;;10.60;82.80;;;;;;5095752;28;20024;-16
2022/10/11 06:12:53;;;;;;;25.45;17.02;;;10.80;82.70;;;;;;5095761;28;20085;-18
2022/10/11 06:15:19;;;;;;;41.15;27.67;;;10.90;82.50;;;;;;5095909;28;20059;-15
2022/10/11 06:17:46;;;;;;;28.80;19.02;;;11.20;82.60;;;;;;5094506;28;20093;-17
2022/10/11 06:20:12;;;;;;;27.35;18.30;;;11.40;82.40;;;;;;5096031;28;20058;-17
2022/10/11 06:22:39;;;;;;;22.95;15.73;;;11.50;82.40;;;;;;5095553;28;20060;-17
2022/10/11 06:25:05;;;;;;;20.70;13.57;;;11.70;82.30;;;;;;5095430;28;20024;-16
2022/10/11 06:27:31;;;;;;;20.10;12.57;;;11.80;82.20;;;;;;5096152;28;20024;-15
2022/10/11 06:29:58;;;;;;;24.02;14.43;;;11.90;82.10;;;;;;5095816;28;20032;-18
2022/10/11 06:32:24;;;;;;;21.77;14.90;;;12.10;82.20;;;;;;5095418;28;20024;-16
2022/10/11 06:34:50;;;;;;;17.80;12.40;;;12.30;82.10;;;;;;5095121;28;20069;-15
2022/10/11 06:37:16;;;;;;;23.35;15.05;;;12.50;82.20;;;;;;5095039;28;20526;-15
2022/10/11 06:39:41;;;;;;;20.48;13.63;;;12.70;82.20;;;;;;5095288;28;20020;-15
2022/10/11 06:42:10;;;;;;;22.15;14.65;;;13.00;82.00;;;;;;5095646;28;20024;-14
2022/10/11 06:44:37;;;;;;;17.85;11.65;;;13.40;81.90;;;;;;5096095;28;20020;-15
2022/10/11 06:47:05;;;;;;;20.42;10.80;;;13.60;81.70;;;;;;5095052;28;20030;-17
2022/10/11 06:49:31;;;;;;;22.75;14.10;;;13.90;81.40;;;;;;5095480;28;20032;-17
2022/10/11 06:51:57;;;;;;;15.70;10.98;;;14.30;81.20;;;;;;5094988;28;20028;-15
2022/10/11 06:54:23;;;;;;;20.25;12.98;;;14.50;80.70;;;;;;5095210;28;20020;-16
2022/10/11 06:56:49;;;;;;;18.52;11.82;;;14.90;80.20;;;;;;5095012;28;20034;-15
2022/10/11 06:59:15;;;;;;;23.35;13.68;;;15.10;79.90;;;;;;5095316;28;20020;-15
2022/10/11 07:01:41;;;;;;;15.48;10.50;;;15.40;79.60;;;;;;5095216;28;20077;-18
2022/10/11 07:04:07;;;;;;;14.75;9.73;;;15.60;78.70;;;;;;5095130;28;20380;-15
2022/10/11 07:06:38;;;;;;;15.63;10.13;;;15.90;78.60;;;;;;5094928;28;20483;-15
2022/10/11 07:09:04;;;;;;;15.43;10.63;;;16.20;78.10;;;;;;5094423;28;20025;-16
2022/10/11 07:11:30;;;;;;;15.95;10.20;;;16.50;77.70;;;;;;5095061;28;20028;-15
2022/10/11 07:13:59;;;;;;;15.60;10.13;;;16.80;76.80;;;;;;5094970;28;20070;-16
2022/10/11 07:16:26;;;;;;;15.57;10.77;;;17.20;76.00;;;;;;5094743;28;20020;-14
2022/10/11 07:18:56;;;;;;;14.70;10.07;;;17.40;75.20;;;;;;5094338;28;20036;-15
2022/10/11 07:21:22;;;;;;;14.60;9.32;;;17.80;74.30;;;;;;5094511;28;20032;-15
2022/10/11 07:23:48;;;;;;;14.75;9.30;;;18.10;73.40;;;;;;5094574;28;20031;-15
2022/10/11 07:26:14;;;;;;;15.25;9.98;;;18.40;72.60;;;;;;5094464;28;20023;-15
2022/10/11 07:28:41;;;;;;;13.75;9.13;;;18.70;72.00;;;;;;5094405;28;20024;-17
2022/10/11 07:31:10;;;;;;;13.93;9.45;;;18.90;71.20;;;;;;5094129;28;20165;-15
2022/10/11 07:33:37;;;;;;;13.02;9.35;;;19.10;70.30;;;;;;5094329;28;20027;-17
2022/10/11 07:36:05;;;;;;;16.08;9.95;;;19.20;70.20;;;;;;5222183;22;20407;-16
2022/10/11 07:38:31;;;;;;;17.23;11.15;;;19.30;70.10;;;;;;5074022;28;20028;-15
2022/10/11 07:40:57;;;;;;;13.07;9.25;;;19.30;69.70;;;;;;5073696;28;20484;-14
2022/10/11 07:43:23;;;;;;;13.23;8.57;;;19.30;69.20;;;;;;5073852;28;20101;-14
2022/10/11 07:45:54;;;;;;;14.23;9.10;;;19.30;69.30;;;;;;5073637;28;20024;-15
2022/10/11 07:48:21;;;;;;;13.15;8.43;;;19.30;69.30;;;;;;5074152;28;20104;-14
2022/10/11 07:50:47;;;;;;;12.85;9.85;;;19.40;69.00;;;;;;5073434;28;20033;-16
2022/10/11 07:53:13;;;;;;;14.00;8.85;;;19.50;68.60;;;;;;5074234;28;20025;-14
2022/10/11 07:55:39;;;;;;;12.63;8.70;;;19.70;68.20;;;;;;5073664;28;20028;-15
2022/10/11 07:58:07;;;;;;;12.25;8.48;;;19.90;67.90;;;;;;5073614;28;20032;-14
2022/10/11 08:00:34;;;;;;;16.33;10.18;;;20.10;67.40;;;;;;5074352;28;20069;-16
2022/10/11 08:03:06;;;;;;;16.88;7.97;;;20.20;67.20;;;;;;5073893;28;20031;-15
2022/10/11 08:05:33;;;;;;;11.77;8.77;;;20.40;66.40;;;;;;5072221;28;20032;-15
2022/10/11 08:07:59;;;;;;;13.93;9.80;;;20.40;66.00;;;;;;5073737;28;20043;-14
2022/10/11 08:10:26;;;;;;;15.50;9.57;;;20.50;65.20;;;;;;5073351;28;20430;-15
2022/10/11 08:12:55;;;;;;;12.93;9.00;;;20.70;65.10;;;;;;5074046;28;20111;-14
2022/10/11 08:15:21;;;;;;;15.50;8.95;;;20.90;64.30;;;;;;5073933;28;20052;-14
2022/10/11 08:17:47;;;;;;;13.25;8.73;;;21.20;63.60;;;;;;5073688;28;20028;-14
2022/10/11 08:20:13;;;;;;;12.82;9.10;;;21.40;62.40;;;;;;5073198;28;20017;-14
2022/10/11 08:22:39;;;;;;;14.35;8.90;;;21.60;62.30;;;;;;5073262;28;20067;-14
2022/10/11 08:25:06;;;;;;;13.80;9.80;;;21.90;62.10;;;;;;5073336;28;20048;-14
2022/10/11 08:27:32;;;;;;;15.75;9.68;;;22.00;61.40;;;;;;5073482;28;20032;-13
2022/10/11 08:29:58;;;;;;;13.05;9.20;;;22.30;60.20;;;;;;5073114;28;20017;-14
2022/10/11 08:32:24;;;;;;;15.13;9.82;;;22.40;59.80;;;;;;5073207;28;20033;-14
2022/10/11 08:34:50;;;;;;;14.65;10.32;;;22.70;58.60;;;;;;5073159;28;20120;-14
2022/10/11 08:37:16;;;;;;;12.77;8.93;;;22.80;58.20;;;;;;5072814;28;20125;-14
2022/10/11 08:39:41;;;;;;;13.50;9.60;;;22.90;58.40;;;;;;5073073;28;20024;-14
2022/10/11 08:42:36;;;;;;;14.68;9.50;;;23.00;57.80;;;;;;5073381;28;20033;-14
2022/10/11 08:45:09;;;;;;;19.77;12.38;;;23.20;56.10;;;;;;5072979;28;20017;-14
2022/10/11 08:47:39;;;;;;;18.33;11.00;;;23.40;57.30;;;;;;5073068;28;20021;-15
2022/10/11 08:50:15;;;;;;;13.90;9.68;;;23.20;57.00;;;;;;5072933;28;20502;-15
2022/10/11 08:52:44;;;;;;;17.88;11.95;;;22.90;58.00;;;;;;5073184;28;20028;-15
2022/10/11 08:55:33;;;;;;;11.85;8.73;;;22.90;59.10;;;;;;5073279;28;20286;-15
2022/10/11 08:58:01;;;;;;;13.32;9.75;;;22.90;57.40;;;;;;5075255;28;20028;-14
2022/10/11 09:00:31;;;;;;;10.82;7.95;;;22.90;58.00;;;;;;5077215;28;20095;-14
2022/10/11 09:03:05;;;;;;;12.30;8.43;;;23.20;58.50;;;;;;5076668;28;20033;-15
2022/10/11 09:05:35;;;;;;;10.90;8.27;;;23.50;57.80;;;;;;5077094;28;20051;-15
2022/10/11 09:08:13;;;;;;;12.98;8.73;;;23.90;57.10;;;;;;5076907;28;20108;-14
2022/10/11 09:10:48;;;;;;;15.07;9.45;;;24.20;56.70;;;;;;5077143;28;20028;-14
2022/10/11 09:13:51;;;;;;;19.45;8.50;;;24.40;55.40;;;;;;5077147;28;20116;-15
2022/10/11 09:17:07;;;;;;;9.03;7.07;;;24.80;53.90;;;;;;5077024;28;20032;-15
2022/10/11 09:19:50;;;;;;;12.75;8.25;;;25.00;53.80;;;;;;5068470;28;20078;-14
2022/10/11 09:22:43;;;;;;;16.80;8.57;;;25.20;51.80;;;;;;5076525;28;20383;-14
2022/10/11 09:25:33;;;;;;;14.73;9.30;;;25.40;51.60;;;;;;5076374;28;20108;-15
2022/10/11 09:27:59;;;;;;;11.93;8.73;;;25.70;51.50;;;;;;5076541;28;20021;-14
2022/10/11 09:30:25;;;;;;;14.02;9.45;;;25.90;49.70;;;;;;5076367;28;20025;-15
2022/10/11 09:33:11;;;;;;;14.85;9.90;;;26.00;47.90;;;;;;5076692;28;20040;-15
2022/10/11 09:35:41;;;;;;;13.13;7.72;;;26.00;48.80;;;;;;5075860;28;20044;-14
2022/10/11 09:38:23;;;;;;;13.20;7.95;;;26.20;48.80;;;;;;5076935;28;20039;-15
2022/10/11 09:41:05;;;;;;;15.30;9.20;;;26.30;48.90;;;;;;5076415;28;20039;-14
2022/10/11 09:43:31;;;;;;;13.48;8.93;;;26.50;48.50;;;;;;5076180;28;20029;-15
2022/10/11 09:45:57;;;;;;;10.50;7.80;;;26.60;49.40;;;;;;5076182;28;20020;-14
2022/10/11 09:48:31;;;;;;;12.65;8.30;;;26.80;49.20;;;;;;5076063;28;20025;-14
2022/10/11 09:51:07;;;;;;;12.85;9.70;;;26.80;48.40;;;;;;5074489;28;20391;-14
2022/10/11 09:54:04;;;;;;;12.90;9.13;;;26.90;46.50;;;;;;5076256;28;20020;-14
2022/10/11 09:56:32;;;;;;;11.63;7.97;;;26.80;46.60;;;;;;5071346;28;20029;-14
2022/10/11 09:59:30;;;;;;;13.25;9.10;;;26.80;48.40;;;;;;5075938;28;20095;-14
2022/10/11 10:02:18;;;;;;;15.02;8.65;;;26.80;47.30;;;;;;5076028;28;20472;-14
2022/10/11 10:04:52;;;;;;;9.77;7.20;;;27.00;45.50;;;;;;5076131;28;20094;-14
2022/10/11 10:07:19;;;;;;;10.38;7.80;;;27.20;45.80;;;;;;5075745;28;20020;-14
2022/10/11 10:09:46;;;;;;;10.02;7.90;;;27.30;47.00;;;;;;5073938;28;20129;-14
2022/10/11 10:12:19;;;;;;;11.65;8.13;;;27.50;47.00;;;;;;5075652;28;20036;-15
2022/10/11 10:15:00;;;;;;;12.55;8.73;;;27.70;46.20;;;;;;5075958;28;20024;-14
2022/10/11 10:17:26;;;;;;;13.07;8.63;;;28.00;44.20;;;;;;5076240;28;20031;-15
2022/10/11 10:19:55;;;;;;;15.32;8.80;;;28.10;45.60;;;;;;5075736;28;20020;-15
2022/10/11 10:22:28;;;;;;;13.32;9.25;;;27.90;45.90;;;;;;5075671;28;20017;-14
2022/10/11 10:24:55;;;;;;;11.85;8.30;;;28.10;45.70;;;;;;5075338;28;20035;-14
2022/10/11 10:27:25;;;;;;;10.38;7.90;;;28.30;45.70;;;;;;5074009;28;20117;-15
2022/10/11 10:30:18;;;;;;;12.43;8.50;;;28.50;45.10;;;;;;5075586;28;20032;-14
2022/10/11 10:33:05;;;;;;;11.63;9.20;;;28.70;44.50;;;;;;5075632;28;20044;-14
2022/10/11 10:35:48;;;;;;;16.13;9.68;;;28.90;43.40;;;;;;5075205;28;20083;-14
2022/10/11 10:38:46;;;;;;;;;;;28.90;43.80;;;;;;5075670;28;20029;-14
2022/10/11 10:41:15;;;;;;;14.90;10.77;;;29.00;42.00;;;;;;5052401;28;19927;-14
2022/10/11 10:43:47;;;;;;;14.13;10.30;;;29.30;43.90;;;;;;5073857;28;20063;-14
2022/10/11 10:46:32;;;;;;;11.38;8.18;;;29.50;43.40;;;;;;5075396;28;20375;-15
2022/10/11 10:49:16;;;;;;;12.27;8.05;;;29.60;39.40;;;;;;5075426;28;20039;-15
2022/10/11 10:52:22;;;;;;;12.18;7.85;;;29.70;41.20;;;;;;5074861;28;20033;-15
2022/10/11 10:55:18;;;;;;;9.80;6.97;;;30.00;42.50;;;;;;5074715;28;20111;-16
2022/10/11 10:57:50;;;;;;;8.80;6.65;;;30.50;40.00;;;;;;5074788;28;20020;-15
2022/10/11 11:00:20;;;;;;;13.43;7.63;;;30.90;41.70;;;;;;5073609;28;20036;-14
2022/10/11 11:03:02;;;;;;;12.82;7.60;;;31.20;41.10;;;;;;5074704;28;20497;-15
2022/10/11 11:05:52;;;;;;;11.50;8.45;;;31.40;39.60;;;;;;5075057;28;20031;-15
2022/10/11 11:08:30;;;;;;;13.73;8.65;;;31.40;39.20;;;;;;5074614;28;20029;-14
2022/10/11 11:11:11;;;;;;;11.93;8.90;;;31.40;38.30;;;;;;5074379;28;20047;-15
2022/10/11 11:13:55;;;;;;;9.85;7.82;;;31.30;38.50;;;;;;5075153;28;20044;-15
2022/10/11 11:16:30;;;;;;;11.40;8.05;;;31.20;38.90;;;;;;5074984;28;20361;-15
2022/10/11 11:19:01;;;;;;;9.65;7.10;;;31.40;38.40;;;;;;5074455;28;20438;-15
2022/10/11 11:21:54;;;;;;;12.02;8.27;;;31.50;38.30;;;;;;5073859;28;20364;-15
2022/10/11 11:24:33;;;;;;;12.60;8.20;;;31.70;37.60;;;;;;5074593;28;20020;-15
2022/10/11 11:27:29;;;;;;;15.45;10.32;;;31.90;38.10;;;;;;5074115;28;20024;-15
2022/10/11 11:30:11;;;;;;;12.73;8.50;;;32.00;35.20;;;;;;5074139;28;20067;-14
2022/10/11 11:32:49;;;;;;;11.43;8.32;;;32.10;36.30;;;;;;5074385;28;20540;-15
2022/10/11 11:35:40;;;;;;;10.80;8.07;;;32.10;37.50;;;;;;5072846;28;20025;-16
2022/10/11 11:38:39;;;;;;;12.45;7.88;;;32.20;36.00;;;;;;5074537;28;20123;-15
2022/10/11 11:41:20;;;;;;;14.68;10.07;;;32.30;36.50;;;;;;5073784;28;20025;-15
2022/10/11 11:43:58;;;;;;;14.90;10.32;;;32.40;37.10;;;;;;5074328;28;20506;-15
2022/10/11 11:46:33;;;;;;;11.65;6.75;;;32.20;36.80;;;;;;5074165;28;20051;-16
2022/10/11 11:49:04;;;;;;;10.80;7.50;;;31.70;37.80;;;;;;5073718;28;20373;-15
2022/10/11 11:51:36;;;;;;;10.57;8.23;;;31.70;38.40;;;;;;5074020;28;20488;-15
2022/10/11 11:54:18;;;;;;;14.80;9.50;;;31.80;38.20;;;;;;5074083;28;20029;-15
2022/10/11 11:56:44;;;;;;;10.10;7.50;;;31.80;37.00;;;;;;5073642;28;20060;-14
2022/10/11 11:59:20;;;;;;;14.35;9.15;;;31.30;38.30;;;;;;5073776;28;20287;-15
2022/10/11 12:02:12;;;;;;;10.70;8.30;;;31.10;37.00;;;;;;5073813;28;20506;-15
2022/10/11 12:04:43;;;;;;;13.80;9.00;;;30.70;38.80;;;;;;5074200;28;20029;-14
2022/10/11 12:07:19;;;;;;;12.70;8.70;;;30.30;39.10;;;;;;5072124;28;20334;-14
2022/10/11 12:10:13;;;;;;;12.38;7.07;;;29.90;39.50;;;;;;5073786;28;20025;-15
2022/10/11 12:12:40;;;;;;;8.60;6.80;;;29.80;40.10;;;;;;5074087;28;20104;-15
2022/10/11 12:15:09;;;;;;;13.77;10.20;;;29.80;40.60;;;;;;5073502;28;20024;-14
2022/10/11 12:17:56;;;;;;;10.52;7.93;;;29.80;40.00;;;;;;5073706;28;20086;-15
2022/10/11 12:20:27;;;;;;;13.95;9.77;;;29.60;39.90;;;;;;5073319;28;20511;-15
2022/10/11 12:22:59;;;;;;;9.35;7.35;;;29.60;40.10;;;;;;5073131;28;20025;-15
2022/10/11 12:25:25;;;;;;;9.90;6.77;;;29.60;40.50;;;;;;5073213;28;20036;-15
2022/10/11 12:28:00;;;;;;;14.88;10.02;;;29.70;40.60;;;;;;5073777;28;20293;-15
2022/10/11 12:30:52;;;;;;;12.75;7.80;;;30.00;39.20;;;;;;5073450;28;20035;-15
2022/10/11 12:33:44;;;;;;;14.15;8.68;;;29.90;39.40;;;;;;5073934;28;20021;-15
2022/10/11 12:36:32;;;;;;;10.95;7.68;;;30.10;38.90;;;;;;5072820;28;20057;-15
2022/10/11 12:39:17;;;;;;;9.68;7.53;;;30.20;39.40;;;;;;5073250;28;20103;-14
2022/10/11 12:41:46;;;;;;;11.70;7.30;;;30.40;38.20;;;;;;5073068;28;20093;-15
2022/10/11 12:44:17;;;;;;;9.18;6.90;;;30.70;39.30;;;;;;5073235;28;20444;-14
2022/10/11 12:46:49;;;;;;;11.30;7.55;;;31.10;38.70;;;;;;5073034;28;20044;-14
2022/10/11 12:49:30;;;;;;;11.73;8.07;;;31.50;38.10;;;;;;5073487;28;20480;-15
2022/10/11 12:52:20;;;;;;;11.02;7.55;;;31.90;37.50;;;;;;5072884;28;20495;-15
2022/10/11 12:54:52;;;;;;;11.55;7.55;;;32.10;37.10;;;;;;5072949;28;20025;-17
2022/10/11 12:57:36;;;;;;;15.27;10.63;;;32.30;37.20;;;;;;5072906;28;20025;-15
2022/10/11 13:00:29;;;;;;;11.95;9.88;;;32.20;36.60;;;;;;5072934;28;20082;-15